sensor_id;sensor_type;location;lat;lon;timestamp;pressure;altitude;pressure_sealevel;temperature;humidity
58771;BME280;44539;42.962;1.596;2023-01-04T07:35:47;98707.00;;;-0.86;100.00
58771;BME280;44539;42.962;1.596;2023-01-04T07:38:13;98706.94;;;-0.84;100.00
58771;BME280;44539;42.962;1.596;2023-01-04T07:40:39;98710.75;;;-0.91;100.00
58771;BME280;44539;42.962;1.596;2023-01-04T07:43:04;98713.00;;;-0.84;100.00
58771;BME280;44539;42.962;1.596;2023-01-04T07:45:29;98708.78;;;-0.86;100.00
58771;BME280;44539;42.962;1.596;2023-01-04T07:47:56;98705.31;;;-0.87;100.00
58771;BME280;44539;42.962;1.596;2023-01-04T07:50:22;98703.59;;;-0.67;100.00
58771;BME280;44539;42.962;1.596;2023-01-04T07:52:47;98701.66;;;-0.43;100.00
58771;BME280;44539;42.962;1.596;2023-01-04T07:55:12;98706.34;;;-0.31;100.00
58771;BME280;44539;42.962;1.596;2023-01-04T07:57:38;98708.13;;;-0.31;100.00
58771;BME280;44539;42.962;1.596;2023-01-04T08:00:04;98715.22;;;-0.35;100.00
58771;BME280;44539;42.962;1.596;2023-01-04T08:02:29;98714.16;;;-0.50;100.00
58771;BME280;44539;42.962;1.596;2023-01-04T08:04:55;98717.28;;;-0.62;100.00
58771;BME280;44539;42.962;1.596;2023-01-04T08:07:20;98726.19;;;-0.66;100.00
58771;BME280;44539;42.962;1.596;2023-01-04T08:09:46;98718.69;;;-0.74;100.00
58771;BME280;44539;42.962;1.596;2023-01-04T08:12:11;98717.75;;;-0.73;100.00
58771;BME280;44539;42.962;1.596;2023-01-04T08:14:37;98718.84;;;-0.58;100.00
58771;BME280;44539;42.962;1.596;2023-01-04T08:17:02;98716.84;;;-0.32;100.00
58771;BME280;44539;42.962;1.596;2023-01-04T08:19:27;98719.97;;;-0.24;100.00
58771;BME280;44539;42.962;1.596;2023-01-04T08:21:53;98726.75;;;-0.20;100.00
58771;BME280;44539;42.962;1.596;2023-01-04T08:24:18;98721.19;;;-0.12;100.00
58771;BME280;44539;42.962;1.596;2023-01-04T08:26:44;98719.13;;;-0.25;100.00
58771;BME280;44539;42.962;1.596;2023-01-04T08:29:11;98723.84;;;-0.33;100.00
58771;BME280;44539;42.962;1.596;2023-01-04T08:31:36;98725.81;;;-0.38;100.00
58771;BME280;44539;42.962;1.596;2023-01-04T08:34:04;98722.66;;;-0.26;100.00
58771;BME280;44539;42.962;1.596;2023-01-04T08:36:32;98719.97;;;-0.24;100.00
58771;BME280;44539;42.962;1.596;2023-01-04T08:39:03;98729.25;;;-0.17;100.00
58771;BME280;44539;42.962;1.596;2023-01-04T08:41:31;98721.03;;;-0.09;100.00
58771;BME280;44539;42.962;1.596;2023-01-04T08:43:57;98724.84;;;-0.16;100.00
58771;BME280;44539;42.962;1.596;2023-01-04T08:46:22;98727.53;;;0.01;100.00
58771;BME280;44539;42.962;1.596;2023-01-04T08:48:48;98727.00;;;0.13;100.00
58771;BME280;44539;42.962;1.596;2023-01-04T08:51:15;98735.72;;;0.12;100.00
58771;BME280;44539;42.962;1.596;2023-01-04T08:53:41;98727.59;;;-0.01;100.00
58771;BME280;44539;42.962;1.596;2023-01-04T08:56:07;98726.22;;;-0.08;100.00
58771;BME280;44539;42.962;1.596;2023-01-04T08:58:34;98730.44;;;-0.05;100.00
58771;BME280;44539;42.962;1.596;2023-01-04T09:01:04;98731.50;;;-0.09;100.00
58771;BME280;44539;42.962;1.596;2023-01-04T09:03:30;98736.31;;;0.00;100.00
58771;BME280;44539;42.962;1.596;2023-01-04T09:06:07;98733.34;;;0.08;100.00
58771;BME280;44539;42.962;1.596;2023-01-04T09:08:34;98731.66;;;0.26;100.00
58771;BME280;44539;42.962;1.596;2023-01-04T09:11:12;98740.03;;;0.32;100.00
58771;BME280;44539;42.962;1.596;2023-01-04T09:13:38;98740.31;;;0.45;100.00
58771;BME280;44539;42.962;1.596;2023-01-04T09:16:05;98739.38;;;0.46;100.00
58771;BME280;44539;42.962;1.596;2023-01-04T09:18:32;98749.13;;;0.43;100.00
58771;BME280;44539;42.962;1.596;2023-01-04T09:20:58;98737.59;;;0.47;100.00
58771;BME280;44539;42.962;1.596;2023-01-04T09:23:26;98739.78;;;0.56;100.00
58771;BME280;44539;42.962;1.596;2023-01-04T09:25:53;98738.78;;;0.58;100.00
58771;BME280;44539;42.962;1.596;2023-01-04T09:28:18;98738.03;;;0.56;100.00
58771;BME280;44539;42.962;1.596;2023-01-04T09:30:44;98744.28;;;0.71;100.00
58771;BME280;44539;42.962;1.596;2023-01-04T09:33:09;98747.75;;;0.72;100.00
58771;BME280;44539;42.962;1.596;2023-01-04T09:35:34;98743.56;;;0.68;100.00
58771;BME280;44539;42.962;1.596;2023-01-04T09:38:00;98749.31;;;0.93;100.00
58771;BME280;44539;42.962;1.596;2023-01-04T09:40:30;98749.16;;;1.14;100.00
58771;BME280;44539;42.962;1.596;2023-01-04T09:42:58;98747.75;;;1.07;100.00
58771;BME280;44539;42.962;1.596;2023-01-04T09:45:26;98745.47;;;1.35;100.00
58771;BME280;44539;42.962;1.596;2023-01-04T09:48:13;98744.97;;;1.45;100.00
58771;BME280;44539;42.962;1.596;2023-01-04T09:50:47;98741.50;;;1.61;100.00
58771;BME280;44539;42.962;1.596;2023-01-04T09:53:27;98728.31;;;1.96;100.00
58771;BME280;44539;42.962;1.596;2023-01-04T09:56:06;98731.53;;;2.01;100.00
58771;BME280;44539;42.962;1.596;2023-01-04T09:58:38;98725.00;;;2.09;100.00
58771;BME280;44539;42.962;1.596;2023-01-04T10:01:13;98727.72;;;2.39;100.00
58771;BME280;44539;42.962;1.596;2023-01-04T10:03:45;98737.63;;;2.34;100.00
58771;BME280;44539;42.962;1.596;2023-01-04T10:06:14;98738.91;;;2.58;100.00
58771;BME280;44539;42.962;1.596;2023-01-04T10:08:43;98735.34;;;2.59;100.00
58771;BME280;44539;42.962;1.596;2023-01-04T10:11:21;98733.47;;;2.61;100.00
58771;BME280;44539;42.962;1.596;2023-01-04T10:31:04;98726.44;;;3.67;100.00
58771;BME280;44539;42.962;1.596;2023-01-04T10:33:46;98734.31;;;3.81;100.00
58771;BME280;44539;42.962;1.596;2023-01-04T10:36:16;98732.19;;;3.74;100.00
58771;BME280;44539;42.962;1.596;2023-01-04T10:38:43;98726.81;;;3.75;100.00
58771;BME280;44539;42.962;1.596;2023-01-04T10:41:18;98724.16;;;4.18;100.00
58771;BME280;44539;42.962;1.596;2023-01-04T10:44:10;98727.13;;;4.26;100.00
58771;BME280;44539;42.962;1.596;2023-01-04T10:46:49;98716.00;;;4.50;100.00
58771;BME280;44539;42.962;1.596;2023-01-04T10:49:19;98717.31;;;4.57;100.00
58771;BME280;44539;42.962;1.596;2023-01-04T10:52:00;98705.44;;;4.64;100.00
58771;BME280;44539;42.962;1.596;2023-01-04T10:54:33;98713.69;;;4.73;100.00
58771;BME280;44539;42.962;1.596;2023-01-04T10:57:11;98703.97;;;4.73;100.00
58771;BME280;44539;42.962;1.596;2023-01-04T11:02:25;98697.63;;;5.03;100.00
58771;BME280;44539;42.962;1.596;2023-01-04T11:05:00;98699.38;;;5.17;100.00
58771;BME280;44539;42.962;1.596;2023-01-04T11:10:14;98688.53;;;5.47;100.00
58771;BME280;44539;42.962;1.596;2023-01-04T11:12:42;98690.84;;;5.51;100.00
58771;BME280;44539;42.962;1.596;2023-01-04T11:15:10;98686.97;;;5.44;100.00
58771;BME280;44539;42.962;1.596;2023-01-04T11:17:36;98688.84;;;5.55;100.00
58771;BME280;44539;42.962;1.596;2023-01-04T11:20:02;98676.28;;;5.71;100.00
58771;BME280;44539;42.962;1.596;2023-01-04T11:22:41;98671.63;;;5.88;100.00
58771;BME280;44539;42.962;1.596;2023-01-04T11:25:16;98672.38;;;6.03;100.00
58771;BME280;44539;42.962;1.596;2023-01-04T11:27:50;98668.47;;;6.08;100.00
58771;BME280;44539;42.962;1.596;2023-01-04T11:30:21;98661.97;;;6.25;100.00
58771;BME280;44539;42.962;1.596;2023-01-04T11:33:02;98653.44;;;6.46;100.00
58771;BME280;44539;42.962;1.596;2023-01-04T11:35:41;98654.06;;;6.49;100.00
58771;BME280;44539;42.962;1.596;2023-01-04T11:38:18;98653.72;;;6.54;100.00
58771;BME280;44539;42.962;1.596;2023-01-04T11:40:56;98651.38;;;6.73;100.00
58771;BME280;44539;42.962;1.596;2023-01-04T11:43:22;98645.41;;;6.83;100.00
58771;BME280;44539;42.962;1.596;2023-01-04T11:48:41;98635.50;;;6.98;100.00
58771;BME280;44539;42.962;1.596;2023-01-04T11:54:01;98638.81;;;7.24;100.00
58771;BME280;44539;42.962;1.596;2023-01-04T11:56:28;98626.09;;;7.40;100.00
58771;BME280;44539;42.962;1.596;2023-01-04T12:01:43;98632.84;;;7.55;100.00
58771;BME280;44539;42.962;1.596;2023-01-04T12:04:23;98630.66;;;7.72;100.00
58771;BME280;44539;42.962;1.596;2023-01-04T12:06:59;98622.59;;;7.85;100.00
58771;BME280;44539;42.962;1.596;2023-01-04T12:09:28;98619.81;;;7.97;94.13
58771;BME280;44539;42.962;1.596;2023-01-04T12:11:56;98622.94;;;8.03;97.27
58771;BME280;44539;42.962;1.596;2023-01-04T12:14:25;98626.03;;;8.19;92.54
58771;BME280;44539;42.962;1.596;2023-01-04T12:19:21;98621.19;;;8.35;89.64
58771;BME280;44539;42.962;1.596;2023-01-04T12:21:48;98610.34;;;8.50;89.37
58771;BME280;44539;42.962;1.596;2023-01-04T12:24:38;98607.69;;;8.50;91.28
58771;BME280;44539;42.962;1.596;2023-01-04T12:27:02;98599.31;;;8.66;85.86
58771;BME280;44539;42.962;1.596;2023-01-04T12:29:56;98601.50;;;8.61;100.00
58771;BME280;44539;42.962;1.596;2023-01-04T12:34:51;98603.72;;;8.97;89.59
58771;BME280;44539;42.962;1.596;2023-01-04T12:37:46;98597.44;;;9.19;91.34
58771;BME280;44539;42.962;1.596;2023-01-04T12:45:39;98598.91;;;9.64;85.70
58771;BME280;44539;42.962;1.596;2023-01-04T12:51:24;98592.03;;;10.02;84.49
58771;BME280;44539;42.962;1.596;2023-01-04T12:54:02;98592.66;;;10.25;78.91
58771;BME280;44539;42.962;1.596;2023-01-04T13:04:56;98579.47;;;11.58;67.63
58771;BME280;44539;42.962;1.596;2023-01-04T13:07:30;98577.03;;;11.75;71.17
58771;BME280;44539;42.962;1.596;2023-01-04T13:10:01;98572.88;;;12.00;69.50
58771;BME280;44539;42.962;1.596;2023-01-04T13:12:38;98578.63;;;11.95;59.41
58771;BME280;44539;42.962;1.596;2023-01-04T13:15:18;98568.25;;;12.56;58.57
58771;BME280;44539;42.962;1.596;2023-01-04T13:17:46;98562.84;;;13.10;52.75
58771;BME280;44539;42.962;1.596;2023-01-04T13:20:23;98555.41;;;13.21;49.99
58771;BME280;44539;42.962;1.596;2023-01-04T13:22:52;98562.03;;;13.69;53.92
58771;BME280;44539;42.962;1.596;2023-01-04T13:25:19;98559.72;;;13.75;53.95
58771;BME280;44539;42.962;1.596;2023-01-04T13:27:59;98557.31;;;13.98;51.79
58771;BME280;44539;42.962;1.596;2023-01-04T13:30:36;98557.69;;;14.19;44.39
58771;BME280;44539;42.962;1.596;2023-01-04T13:33:13;98556.06;;;14.43;45.54
58771;BME280;44539;42.962;1.596;2023-01-04T13:35:40;98562.44;;;15.07;50.57
58771;BME280;44539;42.962;1.596;2023-01-04T13:38:14;98557.75;;;15.01;51.73
58771;BME280;44539;42.962;1.596;2023-01-04T13:40:45;98541.25;;;15.54;44.61
58771;BME280;44539;42.962;1.596;2023-01-04T13:48:23;98544.91;;;15.61;37.02
58771;BME280;44539;42.962;1.596;2023-01-04T13:53:35;98546.06;;;15.75;39.88
58771;BME280;44539;42.962;1.596;2023-01-04T13:56:02;98542.63;;;16.20;41.37
58771;BME280;44539;42.962;1.596;2023-01-04T13:58:29;98540.63;;;16.45;43.35
58771;BME280;44539;42.962;1.596;2023-01-04T14:01:05;98543.38;;;16.06;35.46
58771;BME280;44539;42.962;1.596;2023-01-04T14:03:41;98542.59;;;16.51;44.79
58771;BME280;44539;42.962;1.596;2023-01-04T14:06:14;98540.16;;;16.42;42.62
58771;BME280;44539;42.962;1.596;2023-01-04T14:08:47;98536.81;;;16.63;32.79
58771;BME280;44539;42.962;1.596;2023-01-04T14:11:21;98537.66;;;16.86;39.23
58771;BME280;44539;42.962;1.596;2023-01-04T14:17:34;98531.16;;;16.81;37.73
58771;BME280;44539;42.962;1.596;2023-01-04T14:20:01;98529.28;;;17.49;41.96
58771;BME280;44539;42.962;1.596;2023-01-04T14:22:40;98528.34;;;17.12;40.82
58771;BME280;44539;42.962;1.596;2023-01-04T14:28:16;98523.00;;;17.86;37.78
58771;BME280;44539;42.962;1.596;2023-01-04T14:30:42;98522.16;;;18.22;32.16
58771;BME280;44539;42.962;1.596;2023-01-04T14:35:37;98518.19;;;18.83;32.83
58771;BME280;44539;42.962;1.596;2023-01-04T14:38:04;98519.13;;;18.96;27.90
58771;BME280;44539;42.962;1.596;2023-01-04T14:40:30;98514.91;;;18.87;29.31
58771;BME280;44539;42.962;1.596;2023-01-04T14:42:57;98522.16;;;19.50;32.99
58771;BME280;44539;42.962;1.596;2023-01-04T14:45:22;98525.66;;;19.44;29.28
58771;BME280;44539;42.962;1.596;2023-01-04T14:47:48;98528.03;;;18.54;37.36
58771;BME280;44539;42.962;1.596;2023-01-04T14:50:14;98520.94;;;17.88;37.37
58771;BME280;44539;42.962;1.596;2023-01-04T14:52:49;98523.97;;;17.70;32.45
58771;BME280;44539;42.962;1.596;2023-01-04T14:55:14;98524.16;;;17.99;34.92
58771;BME280;44539;42.962;1.596;2023-01-04T14:57:39;98524.34;;;18.33;36.68
58771;BME280;44539;42.962;1.596;2023-01-04T15:00:11;98519.34;;;19.30;35.00
58771;BME280;44539;42.962;1.596;2023-01-04T15:02:37;98529.50;;;19.69;38.67
58771;BME280;44539;42.962;1.596;2023-01-04T15:05:02;98522.34;;;19.76;32.08
58771;BME280;44539;42.962;1.596;2023-01-04T15:07:37;98515.91;;;19.77;34.19
58771;BME280;44539;42.962;1.596;2023-01-04T15:10:07;98521.59;;;19.96;35.11
58771;BME280;44539;42.962;1.596;2023-01-04T15:12:41;98520.81;;;19.32;35.97
58771;BME280;44539;42.962;1.596;2023-01-04T15:15:07;98513.41;;;18.78;37.96
58771;BME280;44539;42.962;1.596;2023-01-04T15:17:33;98513.34;;;17.32;40.20
58771;BME280;44539;42.962;1.596;2023-01-04T15:19:58;98522.09;;;16.36;43.33
58771;BME280;44539;42.962;1.596;2023-01-04T15:22:24;98519.34;;;16.21;44.01
58771;BME280;44539;42.962;1.596;2023-01-04T15:24:49;98517.78;;;15.00;46.88
58771;BME280;44539;42.962;1.596;2023-01-04T15:27:14;98521.25;;;14.02;52.58
58771;BME280;44539;42.962;1.596;2023-01-04T15:29:40;98516.78;;;14.27;51.73
58771;BME280;44539;42.962;1.596;2023-01-04T15:32:05;98526.31;;;14.21;52.55
58771;BME280;44539;42.962;1.596;2023-01-04T15:34:31;98520.34;;;14.60;52.51
58771;BME280;44539;42.962;1.596;2023-01-04T15:36:56;98520.13;;;13.62;53.86
58771;BME280;44539;42.962;1.596;2023-01-04T15:39:21;98526.16;;;12.05;62.77
58771;BME280;44539;42.962;1.596;2023-01-04T15:41:47;98527.47;;;11.36;64.59
58771;BME280;44539;42.962;1.596;2023-01-04T15:44:31;98529.97;;;11.00;65.96
58771;BME280;44539;42.962;1.596;2023-01-04T15:46:56;98529.09;;;10.53;66.46
58771;BME280;44539;42.962;1.596;2023-01-04T15:49:23;98532.91;;;9.80;69.73
58771;BME280;44539;42.962;1.596;2023-01-04T15:51:49;98535.22;;;8.93;76.17
58771;BME280;44539;42.962;1.596;2023-01-04T15:54:14;98536.06;;;8.93;76.07
58771;BME280;44539;42.962;1.596;2023-01-04T15:56:41;98535.09;;;8.73;78.33
58771;BME280;44539;42.962;1.596;2023-01-04T15:59:06;98542.91;;;8.54;82.02
58771;BME280;44539;42.962;1.596;2023-01-04T16:01:32;98540.59;;;8.28;83.85
58771;BME280;44539;42.962;1.596;2023-01-04T16:03:57;98542.66;;;8.25;86.68
58771;BME280;44539;42.962;1.596;2023-01-04T16:06:23;98549.91;;;8.11;86.98
58771;BME280;44539;42.962;1.596;2023-01-04T16:08:48;98540.84;;;7.82;87.73
58771;BME280;44539;42.962;1.596;2023-01-04T16:11:21;98547.84;;;7.49;85.69
58771;BME280;44539;42.962;1.596;2023-01-04T16:13:47;98544.50;;;7.35;87.41
58771;BME280;44539;42.962;1.596;2023-01-04T16:16:13;98548.94;;;7.12;89.18
58771;BME280;44539;42.962;1.596;2023-01-04T16:18:46;98550.84;;;6.99;89.70
58771;BME280;44539;42.962;1.596;2023-01-04T16:21:12;98551.78;;;6.75;91.89
58771;BME280;44539;42.962;1.596;2023-01-04T16:23:38;98545.97;;;6.59;93.27
58771;BME280;44539;42.962;1.596;2023-01-04T16:26:09;98548.81;;;6.45;95.59
58771;BME280;44539;42.962;1.596;2023-01-04T16:28:35;98555.25;;;6.29;95.46
58771;BME280;44539;42.962;1.596;2023-01-04T16:31:02;98558.72;;;6.30;93.16
58771;BME280;44539;42.962;1.596;2023-01-04T16:33:28;98558.84;;;6.04;95.44
58771;BME280;44539;42.962;1.596;2023-01-04T16:36:01;98556.84;;;5.95;98.05
58771;BME280;44539;42.962;1.596;2023-01-04T16:38:27;98565.72;;;5.94;97.98
58771;BME280;44539;42.962;1.596;2023-01-04T16:40:57;98563.00;;;5.96;99.72
58771;BME280;44539;42.962;1.596;2023-01-04T16:43:23;98560.53;;;5.92;100.00
58771;BME280;44539;42.962;1.596;2023-01-04T16:45:49;98577.13;;;5.82;100.00
58771;BME280;44539;42.962;1.596;2023-01-04T16:48:14;98572.69;;;5.82;100.00
58771;BME280;44539;42.962;1.596;2023-01-04T16:50:39;98576.13;;;5.59;100.00
58771;BME280;44539;42.962;1.596;2023-01-04T16:53:05;98582.72;;;5.40;100.00
58771;BME280;44539;42.962;1.596;2023-01-04T16:55:30;98574.28;;;5.22;100.00
58771;BME280;44539;42.962;1.596;2023-01-04T16:57:56;98577.47;;;5.15;100.00
58771;BME280;44539;42.962;1.596;2023-01-04T17:00:21;98582.75;;;5.15;100.00
58771;BME280;44539;42.962;1.596;2023-01-04T17:02:48;98592.41;;;5.01;100.00
58771;BME280;44539;42.962;1.596;2023-01-04T17:05:13;98589.47;;;5.06;100.00
58771;BME280;44539;42.962;1.596;2023-01-04T17:07:39;98599.69;;;4.85;100.00
58771;BME280;44539;42.962;1.596;2023-01-04T17:10:05;98600.63;;;4.84;100.00
58771;BME280;44539;42.962;1.596;2023-01-04T17:12:30;98605.66;;;4.61;100.00
58771;BME280;44539;42.962;1.596;2023-01-04T17:14:56;98603.94;;;4.60;100.00
58771;BME280;44539;42.962;1.596;2023-01-04T17:17:22;98611.41;;;4.54;100.00
58771;BME280;44539;42.962;1.596;2023-01-04T17:19:48;98608.69;;;4.28;100.00
58771;BME280;44539;42.962;1.596;2023-01-04T17:22:13;98612.28;;;4.27;100.00
58771;BME280;44539;42.962;1.596;2023-01-04T17:24:39;98615.88;;;4.12;100.00
58771;BME280;44539;42.962;1.596;2023-01-04T17:27:04;98611.53;;;3.98;100.00
